Texas Township, Illinois
Current Conditions -  °F | °C
As of 11:35 PM on Monday 26 Jan 2015 (Local Time) from KAAA Reporting Station
Haze Haze  
Wind Chill: 33°   Ceiling: 1700
Heat Index: 33°   Visibility: 4mi
Dew Point: 32°   Wind: 0mph
Humidity: 94%   Direction: NA
Pressure: 29.9"   Gusts: NA
Location:  40.143°N, 88.9637°W
Report Text: KAAA 270535Z AUTO 00000KT 4SM BR BKN017 OVC024 01/00 A2990 RMK AO2 T00061002
Loading
Personal Weather Stations






























Interactive Weather Map New forecast layout! Learn more

10-Day Weather Forecast

Advertisements
Track Severe Weather on mobile